Yoman Ferry, Washington
Current Conditions -  °F | °C
As of 5:11 AM on Friday 24 Oct 2014 (Local Time) from KGRF Reporting Station
Clear Clear  
Wind Chill: 46°   Ceiling: Unl
Heat Index: 46°   Visibility: 10mi
Dew Point: 46°   Wind: 2mph
Humidity: 100%   Direction: 40°NE
Pressure: 30.01"   Gusts: NA
Location:  47.1608°N, 122.692°W
Report Text: KGRF 241211Z AUTO 04002KT 10SM CLR 08/08 A3001 RMK AO2
Loading
Personal Weather Stations






























Interactive Weather Map
Tropical Storm Tracking
New forecast layout! Learn more

10-Day Weather Forecast

Advertisements
Track Severe Weather on mobile